createdAt,value
2022-11-15T00:02:16.905Z,10.23
2022-11-15T00:05:03.265Z,12.47
2022-11-15T00:07:57.807Z,12.50
2022-11-15T00:10:44.585Z,10.93
2022-11-15T00:13:33.076Z,10.57
2022-11-15T00:16:19.557Z,13.13
2022-11-15T00:19:06.947Z,12.77
2022-11-15T00:21:53.392Z,10.73
2022-11-15T00:24:40.368Z,14.87
2022-11-15T00:27:26.460Z,15.17
2022-11-15T00:30:15.025Z,11.33
2022-11-15T00:33:05.061Z,13.27
2022-11-15T00:35:51.889Z,10.40
2022-11-15T00:38:39.934Z,10.47
2022-11-15T00:41:26.518Z,10.13
2022-11-15T00:44:13.449Z,12.10
2022-11-15T00:47:00.932Z,10.43
2022-11-15T00:49:46.962Z,14.47
2022-11-15T00:52:33.161Z,12.10
2022-11-15T00:55:20.818Z,12.00
2022-11-15T00:58:07.250Z,11.63
2022-11-15T01:00:53.635Z,15.03
2022-11-15T01:03:42.994Z,11.57
2022-11-15T01:06:29.536Z,11.10
2022-11-15T01:09:17.040Z,12.90
2022-11-15T01:12:04.018Z,16.47
2022-11-15T01:14:51.522Z,9.47
2022-11-15T01:17:40.063Z,15.50
2022-11-15T01:20:28.044Z,14.27
2022-11-15T01:23:14.180Z,13.77
2022-11-15T01:26:01.426Z,10.63
2022-11-15T01:28:47.774Z,12.80
2022-11-15T01:31:35.474Z,13.07
2022-11-15T01:34:21.966Z,13.33
2022-11-15T01:37:10.595Z,10.23
2022-11-15T01:39:56.985Z,14.00
2022-11-15T01:42:44.388Z,14.60
2022-11-15T01:45:30.485Z,10.70
2022-11-15T01:48:17.384Z,14.00
2022-11-15T01:51:09.652Z,13.20
2022-11-15T01:54:02.135Z,10.77
2022-11-15T01:56:55.192Z,12.57
2022-11-15T01:59:44.609Z,10.17
2022-11-15T02:02:30.875Z,9.73
2022-11-15T02:05:17.536Z,10.97
2022-11-15T02:08:03.808Z,12.10
2022-11-15T02:10:51.794Z,11.63
2022-11-15T02:13:38.944Z,11.83
2022-11-15T02:16:37.425Z,12.23
2022-11-15T02:19:42.772Z,8.97
2022-11-15T02:22:39.793Z,9.73
2022-11-15T02:25:40.471Z,10.77
2022-11-15T02:28:46.222Z,9.70
2022-11-15T02:31:41.607Z,11.00
2022-11-15T02:34:33.056Z,11.63
2022-11-15T02:37:28.705Z,9.50
2022-11-15T02:40:25.286Z,9.70
2022-11-15T02:43:32.621Z,7.77
2022-11-15T02:46:46.022Z,7.80
2022-11-15T02:49:36.086Z,13.13
2022-11-15T02:52:24.527Z,13.00
2022-11-15T02:55:30.677Z,8.17
2022-11-15T02:58:49.304Z,9.23
2022-11-15T03:01:46.286Z,10.77
2022-11-15T03:04:44.723Z,6.67
2022-11-15T03:07:34.729Z,9.77
2022-11-15T03:10:26.917Z,11.07
2022-11-15T03:13:22.953Z,10.63
2022-11-15T03:16:13.465Z,9.77
2022-11-15T03:19:07.073Z,11.57
2022-11-15T03:21:57.484Z,10.97
2022-11-15T03:24:46.272Z,10.30
2022-11-15T03:27:38.651Z,10.60
2022-11-15T03:30:25.343Z,12.00
2022-11-15T03:33:13.373Z,11.10
2022-11-15T03:36:00.959Z,8.27
2022-11-15T03:38:49.201Z,10.50
2022-11-15T03:41:42.263Z,12.90
2022-11-15T03:44:38.884Z,11.37
2022-11-15T03:47:29.784Z,9.77
2022-11-15T03:50:19.340Z,10.07
2022-11-15T03:53:05.635Z,12.47
2022-11-15T03:55:53.459Z,9.80
2022-11-15T03:58:39.820Z,12.93
2022-11-15T04:01:26.710Z,12.00
2022-11-15T04:04:13.660Z,15.10
2022-11-15T04:06:59.674Z,9.52
2022-11-15T04:10:04.126Z,13.63
2022-11-15T04:12:51.578Z,12.43
2022-11-15T04:15:38.568Z,12.47
2022-11-15T04:18:25.778Z,16.57
2022-11-15T04:21:29.875Z,10.77
2022-11-15T04:24:16.200Z,11.07
2022-11-15T04:27:03.202Z,15.03
2022-11-15T04:29:50.769Z,10.63
2022-11-15T04:32:37.203Z,10.83
2022-11-15T04:35:23.736Z,9.70
2022-11-15T04:38:11.791Z,9.77
2022-11-15T04:40:58.374Z,11.87
2022-11-15T04:43:44.850Z,12.60
2022-11-15T04:46:32.617Z,11.93
2022-11-15T04:49:18.698Z,13.03
2022-11-15T04:52:05.694Z,13.30
2022-11-15T04:54:52.073Z,10.43
2022-11-15T04:57:38.621Z,12.87
2022-11-15T05:00:25.748Z,8.40
2022-11-15T05:03:30.963Z,13.00
2022-11-15T05:06:17.942Z,11.57
2022-11-15T05:09:05.134Z,10.37
2022-11-15T05:11:51.727Z,12.00
2022-11-15T05:14:38.395Z,11.10
2022-11-15T05:17:24.397Z,12.37
2022-11-15T05:20:13.252Z,13.77
2022-11-15T05:23:00.917Z,11.53
2022-11-15T05:25:47.205Z,9.27
2022-11-15T05:28:34.643Z,10.20
2022-11-15T05:31:21.134Z,10.23
2022-11-15T05:34:07.571Z,9.87
2022-11-15T05:36:55.626Z,9.40
2022-11-15T05:39:42.132Z,12.07
2022-11-15T05:42:29.303Z,11.40
2022-11-15T05:45:16.794Z,9.50
2022-11-15T05:48:08.881Z,12.00
2022-11-15T05:50:55.624Z,12.83
2022-11-15T05:53:43.593Z,9.03
2022-11-15T05:56:31.396Z,11.33
2022-11-15T05:59:18.975Z,11.17
2022-11-15T06:02:06.060Z,10.60
2022-11-15T06:04:52.575Z,12.77
2022-11-15T06:07:38.766Z,9.30
2022-11-15T06:10:26.442Z,9.40
2022-11-15T06:13:13.067Z,17.63
2022-11-15T06:15:59.571Z,11.83
2022-11-15T06:18:45.849Z,13.47
2022-11-15T06:21:32.231Z,13.13
2022-11-15T06:24:18.460Z,12.83
2022-11-15T06:27:06.084Z,17.73
2022-11-15T06:29:52.188Z,14.93
2022-11-15T06:32:38.254Z,14.13
2022-11-15T06:35:24.992Z,13.87
2022-11-15T06:38:12.180Z,17.67
2022-11-15T06:41:03.586Z,16.60
2022-11-15T06:43:51.462Z,13.40
2022-11-15T06:46:37.669Z,13.30
2022-11-15T06:49:23.976Z,11.40
2022-11-15T06:52:10.136Z,14.47
2022-11-15T06:54:56.708Z,14.80
2022-11-15T06:57:48.801Z,10.80
2022-11-15T07:00:36.702Z,8.50
2022-11-15T07:03:22.789Z,11.60
2022-11-15T07:06:11.005Z,11.83
2022-11-15T07:08:57.310Z,15.40
2022-11-15T07:11:43.690Z,11.77
2022-11-15T07:14:29.948Z,15.10
2022-11-15T07:17:17.980Z,9.43
2022-11-15T07:20:04.655Z,13.57
2022-11-15T07:22:51.775Z,16.20
2022-11-15T07:25:37.904Z,13.20
2022-11-15T07:28:23.929Z,14.53
2022-11-15T07:31:10.859Z,13.83
2022-11-15T07:33:58.469Z,14.20
2022-11-15T07:36:44.845Z,11.43
2022-11-15T07:39:31.167Z,14.40
2022-11-15T07:42:46.894Z,9.73
2022-11-15T07:45:35.271Z,11.70
2022-11-15T07:48:22.010Z,11.20
2022-11-15T07:51:14.180Z,10.67
2022-11-15T07:54:01.016Z,13.03
2022-11-15T07:56:47.108Z,10.77
2022-11-15T07:59:33.992Z,12.63
2022-11-15T08:02:20.186Z,9.77
2022-11-15T08:05:07.316Z,10.70
2022-11-15T08:07:57.340Z,11.17
2022-11-15T08:10:43.959Z,8.40
2022-11-15T08:13:31.101Z,10.73
2022-11-15T08:16:17.466Z,13.57
2022-11-15T08:19:03.868Z,14.07
2022-11-15T08:21:50.162Z,10.27
2022-11-15T08:24:38.300Z,7.80
2022-11-15T08:27:25.332Z,13.10
2022-11-15T08:30:13.088Z,7.53
2022-11-15T08:33:00.621Z,7.40
2022-11-15T08:35:47.320Z,7.83
2022-11-15T08:38:34.113Z,9.87
2022-11-15T08:41:27.546Z,7.33
2022-11-15T08:44:14.150Z,10.67
2022-11-15T08:47:00.551Z,9.13
2022-11-15T08:49:47.214Z,10.90
2022-11-15T08:52:34.567Z,9.23
2022-11-15T08:55:23.488Z,9.07
2022-11-15T08:58:12.680Z,13.27
2022-11-15T09:00:59.050Z,10.20
2022-11-15T09:03:45.661Z,11.73
2022-11-15T09:06:31.995Z,14.43
2022-11-15T09:09:18.329Z,11.40
2022-11-15T09:12:05.075Z,15.07
2022-11-15T09:14:53.330Z,14.23
2022-11-15T09:17:39.432Z,11.50
2022-11-15T09:20:26.162Z,10.80
2022-11-15T09:23:12.326Z,11.17
2022-11-15T09:26:03.621Z,13.07
2022-11-15T09:28:50.076Z,12.60
2022-11-15T09:31:37.818Z,17.00
2022-11-15T09:34:24.427Z,15.57
2022-11-15T09:37:10.747Z,18.40
2022-11-15T09:39:57.040Z,18.77
2022-11-15T09:42:58.764Z,20.40
2022-11-15T09:46:04.386Z,18.10
2022-11-15T09:49:10.761Z,14.23
2022-11-15T09:52:01.904Z,14.90
2022-11-15T09:57:31.889Z,15.43
2022-11-15T10:03:12.476Z,17.40
2022-11-15T10:05:43.327Z,14.57
2022-11-15T10:08:26.882Z,18.50
2022-11-15T10:11:22.715Z,12.57
2022-11-15T10:13:49.045Z,11.90
2022-11-15T10:16:31.637Z,12.17
2022-11-15T10:19:08.060Z,13.60
2022-11-15T10:21:48.614Z,11.83
2022-11-15T10:24:21.384Z,11.20
2022-11-15T10:26:50.023Z,10.57
2022-11-15T10:29:26.444Z,10.43
2022-11-15T10:31:55.170Z,12.70
2022-11-15T10:34:24.755Z,17.20
2022-11-15T10:36:58.746Z,12.00
2022-11-15T10:39:28.618Z,15.43
2022-11-15T10:41:56.913Z,10.67
2022-11-15T10:44:27.782Z,11.40
2022-11-15T10:47:36.039Z,11.50
2022-11-15T10:50:09.584Z,11.50
2022-11-15T10:52:46.040Z,13.43
2022-11-15T10:55:28.470Z,11.93
2022-11-15T10:57:57.912Z,9.63
2022-11-15T11:00:34.952Z,14.07
2022-11-15T11:03:05.003Z,11.53
2022-11-15T11:05:41.017Z,16.00
2022-11-15T11:08:24.507Z,11.50
2022-11-15T11:11:01.532Z,20.17
2022-11-15T11:13:33.289Z,11.17
2022-11-15T11:16:27.279Z,11.53
2022-11-15T11:19:04.359Z,10.93
2022-11-15T11:21:43.037Z,10.97
2022-11-15T11:24:18.514Z,11.70
2022-11-15T11:27:01.808Z,10.90
2022-11-15T11:29:42.013Z,11.30
2022-11-15T11:32:25.244Z,11.00
2022-11-15T11:35:05.331Z,12.20
2022-11-15T11:37:38.949Z,10.00
2022-11-15T11:40:22.659Z,7.57
2022-11-15T11:43:00.192Z,10.20
2022-11-15T11:45:50.672Z,11.73
2022-11-15T11:48:31.705Z,14.73
2022-11-15T11:51:10.674Z,11.23
2022-11-15T11:53:45.649Z,10.43
2022-11-15T11:56:21.986Z,11.70
2022-11-15T11:58:50.350Z,14.63
2022-11-15T12:01:24.212Z,13.10
2022-11-15T12:03:57.739Z,12.70
2022-11-15T12:06:32.925Z,12.90
2022-11-15T12:09:05.897Z,12.57
2022-11-15T12:11:52.201Z,16.13
2022-11-15T12:14:30.725Z,11.00
2022-11-15T12:16:59.630Z,11.80
2022-11-15T12:19:28.154Z,12.83
2022-11-15T12:22:01.928Z,12.27
2022-11-15T12:24:36.695Z,13.03
2022-11-15T12:27:09.481Z,13.23
2022-11-15T12:29:40.074Z,13.40
2022-11-15T12:32:20.858Z,10.70
2022-11-15T12:34:51.112Z,10.13
2022-11-15T12:37:51.220Z,17.83
2022-11-15T12:40:26.016Z,13.77
2022-11-15T12:43:05.648Z,14.27
2022-11-15T12:45:35.642Z,12.73
2022-11-15T12:48:49.791Z,10.80
2022-11-15T12:51:18.048Z,11.57
2022-11-15T12:53:46.370Z,10.30
2022-11-15T12:56:23.645Z,12.13
2022-11-15T12:58:55.791Z,14.30
2022-11-15T13:01:59.138Z,9.83
2022-11-15T13:04:29.386Z,14.00
2022-11-15T13:07:02.323Z,12.47
2022-11-15T13:09:56.989Z,13.93
2022-11-15T13:12:54.952Z,12.10
2022-11-15T13:15:42.265Z,10.30
2022-11-15T13:18:47.421Z,10.50
2022-11-15T13:21:41.644Z,9.43
2022-11-15T13:24:15.594Z,10.83
2022-11-15T13:26:43.826Z,12.17
2022-11-15T13:29:18.673Z,8.53
2022-11-15T13:31:49.250Z,12.53
2022-11-15T13:37:34.498Z,8.33
2022-11-15T13:40:23.774Z,7.13
2022-11-15T13:42:51.914Z,5.67
2022-11-15T13:45:20.725Z,6.97
2022-11-15T13:47:56.605Z,7.37
2022-11-15T13:50:28.842Z,6.10
2022-11-15T13:53:01.303Z,6.37
2022-11-15T13:55:30.724Z,5.60
2022-11-15T13:58:01.429Z,7.97
2022-11-15T14:00:36.406Z,8.67
2022-11-15T14:03:17.875Z,8.00
2022-11-15T14:05:46.707Z,6.90
2022-11-15T14:08:24.877Z,5.67
2022-11-15T14:11:08.634Z,8.10
2022-11-15T14:13:37.456Z,6.67
2022-11-15T14:16:17.076Z,7.60
2022-11-15T14:18:49.069Z,10.13
2022-11-15T14:21:17.433Z,6.53
2022-11-15T14:23:45.203Z,7.00
2022-11-15T14:26:29.172Z,8.20
2022-11-15T14:28:57.455Z,7.90
2022-11-15T14:31:25.377Z,10.10
2022-11-15T14:33:55.136Z,9.40
2022-11-15T14:36:23.269Z,8.73
2022-11-15T14:38:51.253Z,9.17
2022-11-15T14:41:21.329Z,12.93
2022-11-15T14:43:49.081Z,12.30
2022-11-15T14:46:16.956Z,10.10
2022-11-15T14:48:44.550Z,7.40
2022-11-15T14:51:16.621Z,9.67
2022-11-15T14:53:45.528Z,8.27
2022-11-15T14:56:13.595Z,12.07
2022-11-15T14:58:41.442Z,12.00
2022-11-15T15:01:15.512Z,11.10
2022-11-15T15:03:44.998Z,13.47
2022-11-15T15:06:17.920Z,13.20
2022-11-15T15:08:49.413Z,12.43
2022-11-15T15:11:20.616Z,8.33
2022-11-15T15:13:48.309Z,8.10
2022-11-15T15:16:16.179Z,9.53
2022-11-15T15:18:44.392Z,10.90
2022-11-15T15:21:21.975Z,10.17
2022-11-15T15:23:51.550Z,8.83
2022-11-15T15:26:21.091Z,6.13
2022-11-15T15:28:49.562Z,7.50
2022-11-15T15:31:17.603Z,7.90
2022-11-15T15:33:45.340Z,22.73
2022-11-15T15:36:14.063Z,24.33
2022-11-15T15:38:42.308Z,19.33
2022-11-15T15:41:13.155Z,35.17
2022-11-15T15:43:41.466Z,28.27
2022-11-15T15:46:12.267Z,19.87
2022-11-15T15:48:40.469Z,16.27
2022-11-15T15:51:15.411Z,8.80
2022-11-15T15:53:46.284Z,8.30
2022-11-15T15:56:15.372Z,8.43
2022-11-15T15:58:43.038Z,8.37
2022-11-15T16:01:10.784Z,10.20
2022-11-15T16:03:38.393Z,10.53
2022-11-15T16:06:06.576Z,12.57
2022-11-15T16:08:53.352Z,9.17
2022-11-15T16:11:23.036Z,9.20
2022-11-15T16:13:51.056Z,16.90
2022-11-15T16:16:19.359Z,10.93
2022-11-15T16:18:48.613Z,10.30
2022-11-15T16:21:16.324Z,12.70
2022-11-15T16:23:43.920Z,10.53
2022-11-15T16:26:19.952Z,13.30
2022-11-15T16:28:49.145Z,14.07
2022-11-15T16:31:19.148Z,10.23
2022-11-15T16:33:47.135Z,12.20
2022-11-15T16:36:25.665Z,10.60
2022-11-15T16:38:56.614Z,8.73
2022-11-15T16:41:24.257Z,9.00
2022-11-15T16:43:53.566Z,8.13
2022-11-15T16:46:22.920Z,7.20
2022-11-15T16:48:51.295Z,8.20
2022-11-15T16:51:19.343Z,6.77
2022-11-15T16:53:48.802Z,8.90
2022-11-15T16:56:23.595Z,10.37
2022-11-15T16:58:51.218Z,9.40
2022-11-15T17:01:24.286Z,8.60
2022-11-15T17:03:52.098Z,10.10
2022-11-15T17:06:20.556Z,8.50
2022-11-15T17:08:48.567Z,7.67
2022-11-15T17:11:18.314Z,8.07
2022-11-15T17:13:46.704Z,6.53
2022-11-15T17:16:16.470Z,8.57
2022-11-15T17:18:45.911Z,9.33
2022-11-15T17:21:15.936Z,7.97
2022-11-15T17:23:43.971Z,12.10
2022-11-15T17:26:28.723Z,9.57
2022-11-15T17:28:57.692Z,9.30
2022-11-15T17:31:26.139Z,8.33
2022-11-15T17:33:55.438Z,9.30
2022-11-15T17:36:23.153Z,9.43
2022-11-15T17:38:57.971Z,7.60
2022-11-15T17:41:28.509Z,9.37
2022-11-15T17:43:58.952Z,8.43
2022-11-15T17:46:27.817Z,7.60
2022-11-15T17:48:58.059Z,9.37
2022-11-15T17:51:26.361Z,9.60
2022-11-15T17:53:54.890Z,7.20
2022-11-15T17:56:24.481Z,7.60
2022-11-15T17:58:53.810Z,8.00
2022-11-15T18:01:24.486Z,10.07
2022-11-15T18:03:52.912Z,14.23
2022-11-15T18:06:25.292Z,14.53
2022-11-15T18:08:55.970Z,16.90
2022-11-15T18:11:25.502Z,13.17
2022-11-15T18:13:56.737Z,10.97
2022-11-15T18:16:31.503Z,11.00
2022-11-15T18:19:00.511Z,13.40
2022-11-15T18:21:33.914Z,11.43
2022-11-15T18:24:03.051Z,16.33
2022-11-15T18:26:31.844Z,15.27
2022-11-15T18:29:06.081Z,10.40
2022-11-15T18:31:34.146Z,12.40
2022-11-15T18:34:02.090Z,12.60
2022-11-15T18:36:32.022Z,11.27
2022-11-15T18:39:02.705Z,13.20
2022-11-15T18:41:31.091Z,14.50
2022-11-15T18:44:01.947Z,14.03
2022-11-15T18:46:33.053Z,13.93
2022-11-15T18:49:02.506Z,16.00
2022-11-15T18:51:32.995Z,13.90
2022-11-15T18:54:02.770Z,27.07
2022-11-15T18:56:32.634Z,19.20
2022-11-15T18:59:01.844Z,18.13
2022-11-15T19:01:32.785Z,16.80
2022-11-15T19:04:05.597Z,16.97
2022-11-15T19:06:39.144Z,12.83
2022-11-15T19:09:07.891Z,12.40
2022-11-15T19:11:37.908Z,15.20
2022-11-15T19:14:07.825Z,13.60
2022-11-15T19:16:37.149Z,17.03
2022-11-15T19:19:07.173Z,17.07
2022-11-15T19:21:36.190Z,18.10
2022-11-15T19:24:04.121Z,21.97
2022-11-15T19:26:31.782Z,16.73
2022-11-15T19:29:02.038Z,22.20
2022-11-15T19:31:32.510Z,24.80
2022-11-15T19:34:01.494Z,20.33
2022-11-15T19:36:32.636Z,21.60
2022-11-15T19:39:05.199Z,19.53
2022-11-15T19:41:33.541Z,16.37
2022-11-15T19:44:01.517Z,16.23
2022-11-15T19:46:29.169Z,18.00
2022-11-15T19:48:57.348Z,14.83
2022-11-15T19:51:26.686Z,14.97
2022-11-15T19:53:56.518Z,16.00
2022-11-15T19:56:25.891Z,11.83
2022-11-15T19:58:55.505Z,13.77
2022-11-15T20:01:25.449Z,14.30
2022-11-15T20:03:55.579Z,13.30
2022-11-15T20:06:26.036Z,17.37
2022-11-15T20:08:53.932Z,12.90
2022-11-15T20:11:22.171Z,11.87
2022-11-15T20:13:51.824Z,14.60
2022-11-15T20:16:21.709Z,13.17
2022-11-15T20:18:50.773Z,15.73
2022-11-15T20:21:19.220Z,13.90
2022-11-15T20:23:47.597Z,11.13
2022-11-15T20:26:15.876Z,14.00
2022-11-15T20:28:44.640Z,11.97
2022-11-15T20:31:13.909Z,10.63
2022-11-15T20:33:42.545Z,13.67
2022-11-15T20:36:12.706Z,11.13
2022-11-15T20:38:40.728Z,12.17
2022-11-15T20:41:08.911Z,11.10
2022-11-15T20:43:36.633Z,9.40
2022-11-15T20:46:05.640Z,11.50
2022-11-15T20:48:35.207Z,11.27
2022-11-15T20:51:08.213Z,18.20
2022-11-15T20:53:37.152Z,8.37
2022-11-15T20:56:07.700Z,15.33
2022-11-15T20:58:36.446Z,8.73
2022-11-15T21:01:05.173Z,9.93
2022-11-15T21:03:34.971Z,18.10
2022-11-15T21:06:04.183Z,12.80
2022-11-15T21:08:52.721Z,12.90
2022-11-15T21:11:38.682Z,18.20
2022-11-15T21:14:09.575Z,22.73
2022-11-15T21:16:37.681Z,19.23
2022-11-15T21:19:08.058Z,20.97
2022-11-15T21:21:36.647Z,18.07
2022-11-15T21:24:05.295Z,18.90
2022-11-15T21:26:34.311Z,15.53
2022-11-15T21:29:02.747Z,18.40
2022-11-15T21:31:32.270Z,26.37
2022-11-15T21:34:02.295Z,22.03
2022-11-15T21:36:31.490Z,19.07
2022-11-15T21:39:00.174Z,23.50
2022-11-15T21:41:27.830Z,18.43
2022-11-15T21:43:58.593Z,22.63
2022-11-15T21:46:26.570Z,15.33
2022-11-15T21:48:54.571Z,14.60
2022-11-15T21:51:22.889Z,17.77
2022-11-15T21:53:55.618Z,20.30
2022-11-15T21:56:23.695Z,12.90
2022-11-15T21:58:51.876Z,17.70
2022-11-15T22:01:37.304Z,17.17
2022-11-15T22:04:06.374Z,16.17
2022-11-15T22:06:34.629Z,17.37
2022-11-15T22:09:05.463Z,16.13
2022-11-15T22:11:33.180Z,12.60
2022-11-15T22:14:01.457Z,12.30
2022-11-15T22:16:29.702Z,14.63
2022-11-15T22:18:57.463Z,10.97
2022-11-15T22:21:25.599Z,12.90
2022-11-15T22:23:53.307Z,13.00
2022-11-15T22:26:23.974Z,22.27
2022-11-15T22:28:53.338Z,19.20
2022-11-15T22:31:21.167Z,17.60
2022-11-15T22:33:49.419Z,19.47
2022-11-15T22:36:17.209Z,15.80
2022-11-15T22:38:44.898Z,17.37
2022-11-15T22:41:12.901Z,17.37
2022-11-15T22:43:42.462Z,15.43
2022-11-15T22:46:11.382Z,15.43
2022-11-15T22:48:40.181Z,14.07
2022-11-15T22:51:09.060Z,13.17
2022-11-15T22:53:36.929Z,12.63
2022-11-15T22:56:07.253Z,13.90
2022-11-15T22:58:35.906Z,12.10
2022-11-15T23:01:07.053Z,12.97
2022-11-15T23:03:35.585Z,13.80
2022-11-15T23:06:05.877Z,15.60
2022-11-15T23:08:34.284Z,16.77
2022-11-15T23:11:20.500Z,13.73
2022-11-15T23:13:51.227Z,13.97
2022-11-15T23:16:26.191Z,15.40
2022-11-15T23:18:55.561Z,17.53
2022-11-15T23:21:43.601Z,14.90
2022-11-15T23:24:13.123Z,13.80
2022-11-15T23:26:42.070Z,16.33
2022-11-15T23:29:12.953Z,15.83
2022-11-15T23:32:02.464Z,14.87
2022-11-15T23:34:31.185Z,17.17
2022-11-15T23:36:59.641Z,11.90
2022-11-15T23:39:27.592Z,14.13
2022-11-15T23:41:55.858Z,12.77
2022-11-15T23:44:23.879Z,13.73
2022-11-15T23:46:53.599Z,15.23
2022-11-15T23:49:21.558Z,13.87
2022-11-15T23:51:50.018Z,12.80
2022-11-15T23:54:17.704Z,19.03
2022-11-15T23:56:45.475Z,16.00
2022-11-15T23:59:13.540Z,16.30
